My Meet Scores
Raelyn Robbins, Dreams Gymnastics Club Inc. - MyMeetScores.com
Top100 | Top Teams | Upcoming Meets | Completed Meets | Latest | Add Scores | Help| Support | Bookmark and Share

Raelyn Robbins, Dreams Gymnastics Club Inc.
Personal Bests
LevelVault BarsBeamFloorAA
39.4509.250 8.7009.27536.275
48.8759.300 9.0759.20036.225
59.6259.500 9.3759.72537.925
79.1509.425 9.1509.32536.975
Scores on America's Top 100as of 03.28.2020
Year Level Vault Bars Beam Floor AA
2019 59.725

Click here to view our exclusive Top 100 Collection
Meet Scores
Date Meet Team Session Level Division Vault Bars Beam Floor AA
2020-02-28 Sun Devil Classic Dreams Gymnastics Club Inc. 01 7 Jr B 9.050 8 9.100 6 9.150 5T 9.300 5T 36.600 7
2020-02-14 Midwest Open Dreams Gymnastics Club Inc. 02 7 Junior A 8.625 12 9.275 9 8.575 19 9.325 13 35.800 16
2020-01-31 Buckeye Classic Dreams Gymnastics Club Inc. US1 7 B 8.950 14 9.200 3 8.200 14 9.025 11 35.375 10
2020-01-17 2020 Bravo Classic Dreams Gymnastics Club Inc. 9B 7 Jr 9.150 5 9.425 5 9.150 10 9.250 8 36.975 4
2020-01-10 St Jude Benefit Meet Dreams Gymnastics Club Inc. 4B 7 Sr A 8.450 17 9.425 6 8.725 7 9.100 12 35.700 6
2019-12-13 2019 St Nick Dreams Gymnastics Club Inc. 2 7 JrB 9.125 3T 7.500 10 8.550 9 8.825 11 34.000 9
2019-12-07 Home for the Holidays 2019 Dreams Gymnastics Club Inc. 6 7 Middle 8.650 10 9.200 3T 8.750 8 9.325 9 35.925 6
2019-03-22 Illinois Gymnastics State Championships Dreams Gymnastics Club Inc. 2 5 SR B 9.625 5 9.500 2T 9.325 3 9.475 5 37.925 2
2019-03-08 Lucky Invite Dreams Gymnastics Club Inc. A07 5 Sr 9.225 6 9.350 3 9.200 3 9.325 4 37.100 2
2019-02-23 Kinetic Classic 2019 Dreams Gymnastics Club Inc. 1 5 Older 8.450 14T 9.300 2 8.800 9 9.025 5 35.575 6T
2019-02-08 IGI Chicago Style 2019 Dreams Gymnastics Club Inc. 48 5 632 LaSalle L5 B 9.275 4 9.150 3 9.150 4 9.075 7 36.650 3
2019-02-01 St. Valentines Classic Dreams Gymnastics Club Inc. 4A 5 11+ yrs. 9.150 3 9.450 1 9.150 2 9.725 1 37.475 1
2019-01-18 2019 Bravo Classic Dreams Gymnastics Club Inc. 2A 5 Sr 9.100 7 9.325 3 8.950 13 9.350 7 36.725 4
2019-01-11 St Jude Benefit Meet Dreams Gymnastics Club Inc. 9A 5 Sr A 8.900 8 9.200 1T 8.700 5 9.200 4 36.000 3
2018-12-07 St. Nick Invite 2018 Dreams Gymnastics Club Inc. 1 5 SrA 9.100 4T 9.325 1 8.950 7T 9.125 3 36.500 1
2018-03-08 Level 4 & 5 State Dreams Gymnastics Club Inc. 11 5 Jr A 8.675 25T 8.850 16T 9.375 7 9.175 12T 36.075 13
2018-02-23 Kinetic Classic Dreams Gymnastics Club Inc. 8 5 Younger 7.925 79 8.500 66 8.625 64T 8.650 78T 33.700 76
2018-02-09 IGI Chicago Style Gymnastics Meet Dreams Gymnastics Club Inc. 26 5 222 Lake Shore Dr L5 A 8.350 21 8.875 9 8.900 13 8.975 20 35.100 15
2018-01-19 2018 Bravo Classic Dreams Gymnastics Club Inc. 3B 5 Jr 8.225 23 9.225 9 8.700 18 8.700 21T 34.850 22
2018-01-12 St Jude Benefit Meet Dreams Gymnastics Club Inc. 8A 5 JrB 8.450 14 0.000 15 8.425 14 8.650 12 25.525 15
2017-12-08 St. Nick Invite Dreams Gymnastics Club Inc. 4 5 JrB 8.875 9 9.225 3 8.750 15T 8.750 10 35.600 9
2017-03-10 2017 Illinois Level 4 State Championships Dreams Gymnastics Club Inc. 3 4 Youth B 8.775 15 9.125 11 9.075 18 9.000 14T 35.975 13
2017-02-10 IGI Chicago Style Gymnastics Meet Dreams Gymnastics Club Inc. 632L 4 JrB 8.875 4 9.175 2 9.025 7 9.150 2 36.225 2
2017-02-03 St. Valentines Classic Womens Dreams Gymnastics Club Inc. 3A 4 7-9 yrs. 8.300 14 9.225 7 8.500 23 9.175 3 35.200 11
2017-01-13 St Jude Benefit Meet Dreams Gymnastics Club Inc. 5A 4 Jr B 8.050 16 9.050 8T 8.825 15T 8.950 9T 34.875 12
2016-12-09 St. Nick Invite Dreams Gymnastics Club Inc. 6 4 Junior 8.700 6T 9.300 5 8.925 18 9.200 7T 36.125 7
2016-11-11 2016 Illinois Judges Cup Dreams Gymnastics Club Inc. R3 4 9 Year Old 8.100 6T 8.700 4 8.750 5 9.050 2 34.600 3T
2016-03-04 2016 Illinois Level 3 State Championships Dreams Gymnastics Club Inc. 3 Youth-D 9.325 16 9.175 11 8.300 20 9.275 8 36.075 15
2016-02-12 IGI Chicago Style Gymnastics Meet Dreams Gymnastics Club Inc. 213 3 JrB 9.000 15 8.975 4 8.500 14 9.000 5 35.475 7
2016-01-08 St Jude Benefit Meet Dreams Gymnastics Club Inc. 8A 3 Sr A 9.450 5 9.025 2T 8.700 7 9.100 5 36.275 3
2015-12-11 St. Nick Invite Dreams Gymnastics Club Inc. 5B 3 All 8.950 17T 9.250 8 8.650 14T 9.000 20T 35.850 12
Get your scores on
a t-shirt, pin, or hoodie

www.lazysuits.com